Time;durP1;ratioP1;P1;durP2;ratioP2;P2;SDS_P1;SDS_P2;PMS_P1;PMS_P2;Temp;Humidity;BMP_temperature;BMP_pressure;BME280_temperature;BME280_humidity;BME280_pressure;Samples;Min_cycle;Max_cycle;Signal;HPM_P1;HPM_P2
2022/01/19 00:00:17;;;;;;;4.50;3.00;;;15.20;85.20;;;;;;2005257;28;20577;-71
2022/01/19 00:01:16;;;;;;;7.17;3.00;;;15.00;84.90;;;;;;2005452;28;20252;-70
2022/01/19 00:02:14;;;;;;;7.55;3.63;;;15.10;85.00;;;;;;2005629;28;20664;-70
2022/01/19 00:03:13;;;;;;;6.10;2.90;;;15.00;84.90;;;;;;2005625;28;20496;-70
2022/01/19 00:04:11;;;;;;;4.30;2.83;;;15.00;84.90;;;;;;2005715;28;20234;-70
2022/01/19 00:05:11;;;;;;;3.53;2.80;;;15.10;85.00;;;;;;2005643;28;20162;-70
2022/01/19 00:06:10;;;;;;;4.43;3.00;;;15.00;84.90;;;;;;2005522;28;20165;-70
2022/01/19 00:07:09;;;;;;;4.53;3.10;;;15.10;85.00;;;;;;2005999;28;20174;-71
2022/01/19 00:08:07;;;;;;;4.73;2.90;;;15.10;85.80;;;;;;2005548;28;20644;-70
2022/01/19 00:09:06;;;;;;;5.80;3.27;;;15.00;84.80;;;;;;2005524;28;20483;-70
2022/01/19 00:10:09;;;;;;;4.50;3.60;;;15.10;84.90;;;;;;2005477;28;20576;-70
2022/01/19 00:11:08;;;;;;;6.28;3.70;;;15.00;84.90;;;;;;2005329;28;20161;-70
2022/01/19 00:12:07;;;;;;;8.60;3.60;;;15.10;85.00;;;;;;2005613;28;20670;-70
2022/01/19 00:13:05;;;;;;;4.87;3.13;;;15.00;84.90;;;;;;2005457;28;20200;-70
2022/01/19 00:14:04;;;;;;;4.53;3.33;;;15.00;84.80;;;;;;2005881;28;20542;-70
2022/01/19 00:15:03;;;;;;;4.23;3.17;;;15.00;84.70;;;;;;2005645;28;20173;-70
2022/01/19 00:16:01;;;;;;;8.63;2.80;;;15.00;84.90;;;;;;2005372;28;20212;-70
2022/01/19 00:17:00;;;;;;;6.67;4.27;;;15.00;85.00;;;;;;2006110;28;20468;-70
2022/01/19 00:17:59;;;;;;;3.70;2.80;;;15.00;85.10;;;;;;2005702;28;20623;-71
2022/01/19 00:18:57;;;;;;;8.60;3.47;;;15.00;84.90;;;;;;2006525;28;20192;-70
2022/01/19 00:19:56;;;;;;;7.70;3.33;;;15.00;85.00;;;;;;2006903;28;20458;-70
2022/01/19 00:20:55;;;;;;;5.67;3.43;;;15.00;84.90;;;;;;2006252;28;20184;-70
2022/01/19 00:21:54;;;;;;;5.65;3.50;;;15.10;85.00;;;;;;2005512;28;20231;-70
2022/01/19 00:22:53;;;;;;;7.20;3.70;;;15.00;84.90;;;;;;2005622;28;20643;-70
2022/01/19 00:23:52;;;;;;;6.07;3.60;;;15.10;85.00;;;;;;2006006;28;20216;-71
2022/01/19 00:24:50;;;;;;;6.50;3.50;;;15.10;84.90;;;;;;2006266;28;20227;-70
2022/01/19 00:25:51;;;;;;;6.50;4.03;;;15.10;85.00;;;;;;2006171;28;20188;-70
2022/01/19 00:26:49;;;;;;;6.70;4.18;;;15.10;85.00;;;;;;2005616;28;20184;-70
2022/01/19 00:27:48;;;;;;;6.67;3.53;;;15.00;84.90;;;;;;2005803;28;20173;-70
2022/01/19 00:28:46;;;;;;;7.10;3.87;;;15.00;84.90;;;;;;2005219;28;20234;-70
2022/01/19 00:29:44;;;;;;;7.33;3.67;;;15.00;84.90;;;;;;2005233;28;20180;-71
2022/01/19 00:30:43;;;;;;;4.97;2.93;;;15.00;85.10;;;;;;2005284;28;20181;-71
2022/01/19 00:31:42;;;;;;;4.83;3.63;;;15.00;84.90;;;;;;2005355;28;20191;-70
2022/01/19 00:32:41;;;;;;;5.90;3.20;;;15.00;84.90;;;;;;2005505;28;20909;-70
2022/01/19 00:33:39;;;;;;;5.85;3.97;;;15.00;85.00;;;;;;2005324;28;20295;-71
2022/01/19 00:34:38;;;;;;;6.70;3.83;;;15.00;85.00;;;;;;2005300;28;20197;-70
2022/01/19 00:35:37;;;;;;;5.60;3.90;;;15.00;84.80;;;;;;2005115;28;20173;-71
2022/01/19 00:36:35;;;;;;;4.83;3.20;;;15.10;85.00;;;;;;2005200;28;20568;-71
2022/01/19 00:37:34;;;;;;;6.93;3.70;;;15.00;84.90;;;;;;2005362;28;20435;-71
2022/01/19 00:38:32;;;;;;;8.60;3.90;;;15.00;84.90;;;;;;2005515;28;20610;-71
2022/01/19 00:39:33;;;;;;;4.83;3.40;;;15.00;85.00;;;;;;2005281;28;20165;-70
2022/01/19 00:40:31;;;;;;;6.90;3.65;;;15.00;85.20;;;;;;2005103;28;20181;-71
2022/01/19 00:41:30;;;;;;;6.23;4.00;;;15.00;85.00;;;;;;2003791;28;20512;-70
2022/01/19 00:42:28;;;;;;;6.03;3.90;;;15.10;85.00;;;;;;2004680;28;20218;-70
2022/01/19 00:43:27;;;;;;;5.30;3.40;;;15.00;85.00;;;;;;2005279;28;20660;-70
2022/01/19 00:44:26;;;;;;;3.97;3.47;;;15.00;85.10;;;;;;2005286;28;20640;-71
2022/01/19 00:45:25;;;;;;;5.35;3.45;;;15.00;85.00;;;;;;2005246;28;20165;-71
2022/01/19 00:46:23;;;;;;;6.22;3.25;;;15.00;85.00;;;;;;2005222;28;20173;-71
2022/01/19 00:47:22;;;;;;;5.93;3.70;;;15.00;84.80;;;;;;2004495;28;20239;-71
2022/01/19 00:48:20;;;;;;;5.30;3.70;;;15.10;85.00;;;;;;2004517;28;20171;-71
2022/01/19 00:49:19;;;;;;;6.13;3.90;;;15.00;84.90;;;;;;2005151;28;20212;-70
2022/01/19 00:50:21;;;;;;;5.03;3.20;;;15.00;84.90;;;;;;2005411;28;20180;-71
2022/01/19 00:51:20;;;;;;;5.28;3.90;;;15.00;85.00;;;;;;2005105;28;20181;-71
2022/01/19 00:52:18;;;;;;;5.50;3.60;;;15.00;85.00;;;;;;2005158;28;20200;-71
2022/01/19 00:53:17;;;;;;;6.90;4.13;;;15.00;85.50;;;;;;2005184;28;20181;-70
2022/01/19 00:54:15;;;;;;;6.10;4.10;;;15.00;84.90;;;;;;2005045;28;20604;-70
2022/01/19 00:55:14;;;;;;;6.80;4.13;;;15.00;85.00;;;;;;2005147;28;20188;-71
2022/01/19 00:56:12;;;;;;;6.70;3.73;;;15.00;84.70;;;;;;2004904;28;20308;-71
2022/01/19 00:57:11;;;;;;;5.10;3.60;;;15.00;84.90;;;;;;2005208;28;20173;-71
2022/01/19 00:58:09;;;;;;;4.77;3.40;;;15.00;84.80;;;;;;2005286;28;20165;-70
2022/01/19 00:59:08;;;;;;;4.60;3.60;;;15.00;84.90;;;;;;2005015;28;20235;-71
2022/01/19 01:00:10;;;;;;;5.77;3.70;;;15.00;84.90;;;;;;2004947;28;20177;-71
2022/01/19 01:01:09;;;;;;;10.13;3.95;;;15.00;84.90;;;;;;2004996;28;20252;-70
2022/01/19 01:02:07;;;;;;;5.37;3.10;;;15.00;84.90;;;;;;2005234;28;20184;-71
2022/01/19 01:03:06;;;;;;;5.40;3.20;;;15.00;85.00;;;;;;2005073;28;20569;-71
2022/01/19 01:04:04;;;;;;;7.73;4.20;;;15.00;84.90;;;;;;2005269;28;20256;-71
2022/01/19 01:05:03;;;;;;;5.47;3.87;;;15.00;85.00;;;;;;2005104;28;20643;-71
2022/01/19 01:06:02;;;;;;;5.38;3.95;;;15.00;84.90;;;;;;2005000;28;20173;-70
2022/01/19 01:07:01;;;;;;;4.30;3.63;;;15.00;85.10;;;;;;2012205;28;20557;-71
2022/01/19 01:08:00;;;;;;;6.93;4.18;;;15.00;85.10;;;;;;2012385;28;20172;-71
2022/01/19 01:08:58;;;;;;;6.33;3.47;;;15.00;85.20;;;;;;2005385;28;20538;-71
2022/01/19 01:09:57;;;;;;;6.10;3.70;;;15.10;85.20;;;;;;2004364;28;20175;-71
2022/01/19 01:10:55;;;;;;;8.70;3.63;;;15.00;85.00;;;;;;2004625;28;20213;-69
2022/01/19 01:12:12;;;;;;;7.13;4.27;;;15.10;85.20;;;;;;2004850;28;20196;-71
2022/01/19 01:17:10;;;;;;;8.20;3.78;;;15.00;84.90;;;;;;2005161;28;20189;-71
2022/01/19 01:18:21;;;;;;;6.63;4.30;;;15.00;85.20;;;;;;2005093;28;20153;-71
2022/01/19 01:19:19;;;;;;;5.95;3.95;;;15.00;85.00;;;;;;2005096;28;20511;-71
2022/01/19 01:20:19;;;;;;;4.87;3.90;;;15.00;85.10;;;;;;2004968;28;20211;-69
2022/01/19 01:21:17;;;;;;;6.57;4.00;;;15.10;85.00;;;;;;2005068;28;20612;-70
2022/01/19 01:22:16;;;;;;;5.83;4.27;;;15.20;85.00;;;;;;2004960;28;20177;-69
2022/01/19 01:23:15;;;;;;;7.20;4.40;;;15.10;85.00;;;;;;2005048;28;20550;-70
2022/01/19 01:24:14;;;;;;;5.85;3.78;;;15.10;85.00;;;;;;2004696;28;20273;-69
2022/01/19 01:25:12;;;;;;;6.47;4.50;;;15.10;85.00;;;;;;2004890;28;20264;-70
2022/01/19 01:26:11;;;;;;;7.27;3.93;;;15.10;85.10;;;;;;2004839;28;20629;-70
2022/01/19 01:27:10;;;;;;;5.90;3.90;;;15.10;85.10;;;;;;2004868;28;20173;-70
2022/01/19 01:28:08;;;;;;;4.60;3.60;;;15.10;85.20;;;;;;2004939;28;20208;-70
2022/01/19 01:29:07;;;;;;;6.60;4.40;;;15.10;85.20;;;;;;2005021;28;20181;-69
2022/01/19 01:30:07;;;;;;;5.80;4.13;;;15.10;85.20;;;;;;2004795;28;20810;-69
2022/01/19 01:31:08;;;;;;;6.57;4.72;;;15.10;85.20;;;;;;2004881;28;20177;-69
2022/01/19 01:32:08;;;;;;;7.72;4.15;;;15.10;85.10;;;;;;2004852;28;20204;-70
2022/01/19 01:33:07;;;;;;;5.63;3.60;;;15.10;85.30;;;;;;2004809;28;20252;-69
2022/01/19 01:34:05;;;;;;;5.20;3.90;;;15.10;85.30;;;;;;2004900;28;20707;-70
2022/01/19 01:35:04;;;;;;;6.33;4.30;;;15.10;85.30;;;;;;2004804;28;20181;-69
2022/01/19 01:36:03;;;;;;;7.40;4.40;;;15.00;85.30;;;;;;2004668;28;20838;-69
2022/01/19 01:37:02;;;;;;;4.63;3.83;;;15.10;85.40;;;;;;2004912;28;20185;-69
2022/01/19 01:38:02;;;;;;;4.72;3.58;;;15.00;85.40;;;;;;2004767;28;20173;-69
2022/01/19 01:39:00;;;;;;;5.47;4.07;;;15.00;85.30;;;;;;2004898;28;20244;-70
2022/01/19 01:40:01;;;;;;;8.00;4.93;;;15.10;85.60;;;;;;2004798;28;20224;-69
2022/01/19 01:41:00;;;;;;;9.35;5.10;;;15.00;85.40;;;;;;2004804;28;20173;-70
2022/01/19 01:41:58;;;;;;;6.57;4.57;;;15.00;85.60;;;;;;2004752;28;20536;-69
2022/01/19 01:42:58;;;;;;;5.90;4.90;;;15.00;85.50;;;;;;2004953;28;20875;-70
2022/01/19 01:43:57;;;;;;;9.55;3.88;;;15.00;85.50;;;;;;2004811;28;20641;-70
2022/01/19 01:44:59;;;;;;;6.20;4.00;;;15.00;85.40;;;;;;2004777;28;20199;-69
2022/01/19 01:46:04;;;;;;;6.05;4.03;;;15.00;85.50;;;;;;2004688;28;20197;-69
2022/01/19 01:47:03;;;;;;;8.05;5.28;;;15.00;85.50;;;;;;2004886;28;20165;-69
2022/01/19 01:48:06;;;;;;;5.90;4.27;;;15.00;85.40;;;;;;2004657;28;20633;-69
2022/01/19 01:49:08;;;;;;;6.75;4.65;;;15.00;85.50;;;;;;2003983;28;20428;-69
2022/01/19 01:53:42;;;;;;;7.35;4.65;;;15.00;85.60;;;;;;2004910;28;20157;-69
2022/01/19 01:54:41;;;;;;;5.87;4.10;;;14.90;85.50;;;;;;2004656;28;20192;-70
2022/01/19 01:55:39;;;;;;;9.00;4.93;;;14.90;85.70;;;;;;2004598;28;20955;-70
2022/01/19 01:56:38;;;;;;;6.47;4.90;;;14.90;85.50;;;;;;2004679;28;20503;-70
2022/01/19 01:57:36;;;;;;;6.47;4.73;;;14.90;85.50;;;;;;2004670;28;20180;-69
2022/01/19 01:58:41;;;;;;;5.73;4.03;;;15.00;85.60;;;;;;2004637;28;20169;-69
2022/01/19 01:59:39;;;;;;;6.07;4.15;;;14.90;85.30;;;;;;2004832;28;20215;-70
2022/01/19 02:00:37;;;;;;;8.33;4.87;;;14.90;85.50;;;;;;2003825;28;20271;-69
2022/01/19 02:01:38;;;;;;;5.13;4.13;;;14.90;86.00;;;;;;2004171;28;20629;-70
2022/01/19 02:02:38;;;;;;;13.88;5.85;;;14.90;85.60;;;;;;2003714;28;20177;-69
2022/01/19 02:03:39;;;;;;;6.60;4.68;;;14.90;85.70;;;;;;2004023;28;20223;-70
2022/01/19 02:04:41;;;;;;;6.45;4.40;;;14.90;85.60;;;;;;2004739;28;20235;-70
2022/01/19 02:05:53;;;;;;;6.72;4.13;;;15.00;85.90;;;;;;2004598;28;20201;-69
2022/01/19 02:08:19;;;;;;;8.32;5.13;;;14.90;85.60;;;;;;2004644;28;20161;-69
2022/01/19 02:09:21;;;;;;;6.10;4.93;;;14.90;85.40;;;;;;2004697;28;20240;-70
2022/01/19 02:22:36;;;;;;;6.53;4.90;;;14.80;85.60;;;;;;2004695;28;20661;-70
2022/01/19 02:23:45;;;;;;;9.70;5.28;;;14.80;85.70;;;;;;2004329;28;20173;-69
2022/01/19 02:24:45;;;;;;;6.35;5.15;;;14.90;85.80;;;;;;2004449;28;20157;-69
2022/01/19 02:25:46;;;;;;;7.72;5.28;;;14.90;85.80;;;;;;2004470;28;20175;-69
2022/01/19 02:30:11;;;;;;;6.93;4.82;;;14.80;85.70;;;;;;2004556;28;20157;-70
2022/01/19 02:41:02;;;;;;;9.18;5.10;;;14.90;85.70;;;;;;2004539;28;20158;-70
2022/01/19 02:42:05;;;;;;;11.00;5.37;;;14.80;85.80;;;;;;2004571;28;20157;-69
2022/01/19 02:43:08;;;;;;;8.15;5.57;;;14.90;85.80;;;;;;2004575;28;20416;-69
2022/01/19 02:44:14;;;;;;;8.73;5.65;;;14.90;85.70;;;;;;2004533;28;20211;-69
2022/01/19 02:49:50;;;;;;;8.32;5.93;;;14.80;85.80;;;;;;2004441;28;20385;-69
2022/01/19 02:50:49;;;;;;;5.85;4.72;;;14.80;85.80;;;;;;2004490;28;20162;-69
2022/01/19 02:51:52;;;;;;;6.40;5.00;;;14.80;86.00;;;;;;2004556;28;20169;-70
2022/01/19 02:52:51;;;;;;;7.40;4.90;;;14.80;86.00;;;;;;2004546;28;20669;-69
2022/01/19 02:53:49;;;;;;;6.70;5.13;;;14.80;86.10;;;;;;2004399;28;20228;-70
2022/01/19 02:54:49;;;;;;;9.53;6.10;;;14.80;86.00;;;;;;2004341;28;20414;-70
2022/01/19 02:55:48;;;;;;;8.32;5.68;;;14.80;86.10;;;;;;2004245;28;20224;-69
2022/01/19 02:56:51;;;;;;;8.13;4.83;;;14.80;86.10;;;;;;2004330;28;20193;-69
2022/01/19 02:57:50;;;;;;;5.28;4.53;;;14.80;86.10;;;;;;2004514;28;20507;-70
2022/01/19 02:58:54;;;;;;;7.40;5.50;;;14.80;86.20;;;;;;2004370;28;20184;-70
2022/01/19 03:08:54;;;;;;;6.97;5.65;;;14.80;86.30;;;;;;1989607;28;20557;-69
2022/01/19 03:09:52;;;;;;;6.50;4.65;;;14.70;86.40;;;;;;1994523;28;20641;-69
2022/01/19 03:10:51;;;;;;;18.40;5.57;;;14.80;86.50;;;;;;2005993;28;20188;-69
2022/01/19 03:11:50;;;;;;;6.27;5.17;;;14.70;86.30;;;;;;2005835;28;20241;-69
2022/01/19 03:12:49;;;;;;;6.88;5.70;;;14.70;86.50;;;;;;2005709;28;20172;-70
2022/01/19 03:13:48;;;;;;;6.47;4.50;;;14.70;86.50;;;;;;2005848;28;20181;-69
2022/01/19 03:14:46;;;;;;;6.28;5.00;;;14.80;86.60;;;;;;2005707;28;20200;-69
2022/01/19 03:15:46;;;;;;;9.70;5.30;;;14.80;86.30;;;;;;2005828;28;20169;-70
2022/01/19 03:16:46;;;;;;;6.03;4.60;;;14.80;86.30;;;;;;2005808;28;20215;-70
2022/01/19 03:17:44;;;;;;;7.30;5.22;;;14.80;86.40;;;;;;2005740;28;20256;-70
2022/01/19 03:18:43;;;;;;;6.53;5.07;;;14.80;86.40;;;;;;2005807;28;20200;-70
2022/01/19 03:19:42;;;;;;;7.50;5.30;;;14.80;86.30;;;;;;2006049;28;20166;-70
2022/01/19 03:20:40;;;;;;;7.03;5.30;;;14.80;86.30;;;;;;2005834;28;20165;-70
2022/01/19 03:21:41;;;;;;;7.10;4.60;;;14.80;86.40;;;;;;2006066;28;20223;-70
2022/01/19 03:23:03;;;;;;;6.63;5.32;;;14.80;86.40;;;;;;2005829;28;20517;-70
2022/01/19 03:23:59;;;;;;;7.97;5.05;;;14.70;86.20;;;;;;2005279;28;20271;-70
2022/01/19 03:24:58;;;;;;;6.53;4.72;;;14.80;86.40;;;;;;2005087;28;20169;-70
2022/01/19 03:25:58;;;;;;;6.50;4.97;;;14.70;86.50;;;;;;2005328;28;20234;-70
2022/01/19 03:26:56;;;;;;;6.45;3.90;;;14.70;86.50;;;;;;2005641;28;20193;-70
2022/01/19 03:27:55;;;;;;;6.77;5.27;;;14.70;86.50;;;;;;2005734;28;20181;-70
2022/01/19 03:28:54;;;;;;;7.53;5.20;;;14.70;86.50;;;;;;2005847;28;20188;-70
2022/01/19 03:29:52;;;;;;;7.47;5.50;;;14.70;86.50;;;;;;2005866;28;20176;-70
2022/01/19 03:30:51;;;;;;;5.63;4.53;;;14.70;86.50;;;;;;2005680;28;20422;-70
2022/01/19 03:31:49;;;;;;;8.57;5.10;;;14.70;86.60;;;;;;2005762;28;20176;-70
2022/01/19 03:32:48;;;;;;;6.83;5.00;;;14.80;86.40;;;;;;2005852;28;20173;-70
2022/01/19 03:33:47;;;;;;;7.33;5.30;;;14.80;86.60;;;;;;2005790;28;20204;-70
2022/01/19 03:34:45;;;;;;;7.03;5.33;;;14.70;86.40;;;;;;2005675;28;20201;-70
2022/01/19 03:35:45;;;;;;;8.70;5.03;;;14.80;86.60;;;;;;2005654;28;20173;-70
2022/01/19 03:36:43;;;;;;;8.35;5.40;;;14.80;86.50;;;;;;2005532;28;20583;-70
2022/01/19 03:37:42;;;;;;;5.83;4.50;;;14.70;87.10;;;;;;2005732;28;20184;-70
2022/01/19 03:38:41;;;;;;;6.87;4.80;;;14.70;86.40;;;;;;2005872;28;20177;-70
2022/01/19 03:39:39;;;;;;;10.13;5.40;;;14.70;86.30;;;;;;2005809;28;20603;-70
2022/01/19 03:40:38;;;;;;;6.80;5.27;;;14.80;86.50;;;;;;2005667;28;20209;-70
2022/01/19 03:41:37;;;;;;;6.93;5.03;;;14.70;86.40;;;;;;2005698;28;20201;-71
2022/01/19 03:42:35;;;;;;;7.60;5.10;;;14.80;86.60;;;;;;2005667;28;20176;-70
2022/01/19 03:43:34;;;;;;;7.07;4.83;;;14.80;86.40;;;;;;2005766;28;20169;-70
2022/01/19 03:44:32;;;;;;;7.37;5.50;;;14.80;86.40;;;;;;2005661;28;20595;-70
2022/01/19 03:45:33;;;;;;;7.83;5.13;;;14.70;86.50;;;;;;2004932;28;20658;-70
2022/01/19 03:46:34;;;;;;;7.22;5.35;;;14.80;86.50;;;;;;2004983;28;20193;-70
2022/01/19 03:47:39;;;;;;;9.50;4.95;;;14.70;86.60;;;;;;2005760;28;20262;-70
2022/01/19 03:48:44;;;;;;;7.18;5.28;;;14.70;86.50;;;;;;2005501;28;20211;-70
2022/01/19 03:49:43;;;;;;;15.45;5.88;;;14.70;86.30;;;;;;2005691;28;20157;-70
2022/01/19 03:50:42;;;;;;;6.87;5.17;;;14.70;86.50;;;;;;2004947;28;20548;-70
2022/01/19 03:51:40;;;;;;;7.55;4.95;;;14.70;86.40;;;;;;2005136;28;20176;-70
2022/01/19 03:52:39;;;;;;;8.30;5.60;;;14.80;86.50;;;;;;2005511;28;20276;-70
2022/01/19 03:53:38;;;;;;;8.17;5.37;;;14.70;86.40;;;;;;2005691;28;20188;-70
2022/01/19 03:54:39;;;;;;;7.50;4.88;;;14.70;86.30;;;;;;2005425;28;20232;-70
2022/01/19 03:55:38;;;;;;;6.97;4.80;;;14.70;86.30;;;;;;2005472;28;20185;-70
2022/01/19 03:56:37;;;;;;;6.87;5.10;;;14.70;86.20;;;;;;2005663;28;20193;-70
2022/01/19 03:57:35;;;;;;;5.43;4.30;;;14.70;86.50;;;;;;2005453;28;20169;-70
2022/01/19 03:58:35;;;;;;;5.40;4.50;;;14.70;86.30;;;;;;2005449;28;20180;-70
2022/01/19 03:59:34;;;;;;;6.40;4.93;;;14.70;86.20;;;;;;2005545;28;20192;-70
2022/01/19 04:00:35;;;;;;;6.60;5.47;;;14.70;86.40;;;;;;2004702;28;20181;-70
2022/01/19 04:01:34;;;;;;;7.13;4.90;;;14.70;86.30;;;;;;1997135;28;20910;-70
2022/01/19 04:02:35;;;;;;;6.60;4.90;;;14.70;86.40;;;;;;2004773;28;20212;-70
2022/01/19 04:04:50;;;;;;;6.40;4.90;;;14.70;86.40;;;;;;2005246;28;20628;-70
2022/01/19 04:06:58;;;;;;;8.20;4.90;;;14.70;86.20;;;;;;2005454;28;20197;-70
2022/01/19 04:07:57;;;;;;;6.40;4.60;;;14.70;86.20;;;;;;2005439;28;20238;-69
2022/01/19 04:08:56;;;;;;;6.43;4.80;;;14.70;86.20;;;;;;2005491;28;20765;-70
2022/01/19 04:09:54;;;;;;;5.90;4.20;;;14.70;86.20;;;;;;2005508;28;20177;-70
2022/01/19 04:10:53;;;;;;;7.30;4.90;;;14.70;86.30;;;;;;2005272;28;20540;-69
2022/01/19 04:11:52;;;;;;;5.57;4.93;;;14.70;86.30;;;;;;2005361;28;20177;-70
2022/01/19 04:13:07;;;;;;;7.32;5.63;;;14.70;86.30;;;;;;2005539;28;20515;-70
2022/01/19 04:15:04;;;;;;;5.70;4.90;;;14.70;86.40;;;;;;2005573;28;20173;-70
2022/01/19 04:16:03;;;;;;;7.43;5.30;;;14.80;86.50;;;;;;2012573;28;20177;-70
2022/01/19 04:17:06;;;;;;;6.83;4.60;;;14.70;86.20;;;;;;2012733;28;20901;-69
2022/01/19 04:18:05;;;;;;;9.60;4.80;;;14.80;86.40;;;;;;2005392;28;20197;-69
2022/01/19 04:19:21;;;;;;;7.32;5.80;;;14.70;86.20;;;;;;2005500;28;20177;-69
2022/01/19 04:20:24;;;;;;;5.38;4.03;;;14.70;86.20;;;;;;2005480;28;20196;-70
2022/01/19 04:21:23;;;;;;;6.65;4.55;;;14.80;86.20;;;;;;2005443;28;20162;-70
2022/01/19 04:22:21;;;;;;;8.50;4.90;;;14.70;86.20;;;;;;2005389;28;20177;-69
2022/01/19 04:23:21;;;;;;;6.07;4.70;;;14.80;86.40;;;;;;2005243;28;20176;-70
2022/01/19 04:24:21;;;;;;;7.28;5.35;;;14.80;86.40;;;;;;2005416;28;20192;-69
2022/01/19 04:25:20;;;;;;;7.95;4.88;;;14.70;86.20;;;;;;2005379;28;20185;-69
2022/01/19 04:26:18;;;;;;;5.23;4.40;;;14.70;86.20;;;;;;2005164;28;20204;-70
2022/01/19 04:28:15;;;;;;;7.00;4.80;;;14.70;86.40;;;;;;2005475;28;20176;-69
2022/01/19 04:29:14;;;;;;;6.93;4.60;;;14.70;86.30;;;;;;2005273;28;20169;-69
2022/01/19 04:30:14;;;;;;;6.03;5.10;;;14.80;86.40;;;;;;2005176;28;20571;-70
2022/01/19 04:31:13;;;;;;;9.50;5.75;;;14.80;86.40;;;;;;2005287;28;20173;-70
2022/01/19 04:32:16;;;;;;;8.27;4.87;;;14.80;86.40;;;;;;2005316;28;20509;-69
2022/01/19 04:33:19;;;;;;;6.32;4.78;;;14.70;86.20;;;;;;2005423;28;20153;-70
2022/01/19 04:34:19;;;;;;;5.45;4.30;;;14.80;86.30;;;;;;2005249;28;20248;-70
2022/01/19 04:35:23;;;;;;;6.45;4.55;;;14.70;86.20;;;;;;2005079;28;20601;-69
2022/01/19 04:36:35;;;;;;;6.45;4.55;;;14.80;86.50;;;;;;2005140;28;20530;-69
2022/01/19 04:37:59;;;;;;;5.80;4.30;;;14.80;86.40;;;;;;2005243;28;20145;-70
2022/01/19 04:44:33;;;;;;;6.65;4.68;;;14.70;86.60;;;;;;2005223;28;20150;-70
2022/01/19 04:49:04;;;;;;;5.38;4.28;;;14.60;86.40;;;;;;1988771;28;20660;-70
2022/01/19 05:03:09;;;;;;;6.53;4.40;;;14.60;86.50;;;;;;1988595;28;20248;-70
2022/01/19 05:04:27;;;;;;;7.25;4.63;;;14.70;86.60;;;;;;1988649;28;20210;-69
2022/01/19 05:05:31;;;;;;;5.40;4.38;;;14.70;86.70;;;;;;1998756;28;20173;-70
2022/01/19 05:06:31;;;;;;;6.10;4.80;;;14.70;86.70;;;;;;2005018;28;20185;-70
2022/01/19 05:07:44;;;;;;;8.82;4.20;;;14.60;86.60;;;;;;2005056;28;20653;-70
2022/01/19 05:09:00;;;;;;;8.57;4.57;;;14.70;86.70;;;;;;2005133;28;20158;-70
2022/01/19 05:13:36;;;;;;;6.13;4.90;;;14.60;86.40;;;;;;2012400;28;20160;-71
2022/01/19 05:14:34;;;;;;;6.95;4.05;;;14.70;86.50;;;;;;2004260;28;20755;-71
2022/01/19 05:15:33;;;;;;;8.27;4.80;;;14.60;87.20;;;;;;2004417;28;20177;-70
2022/01/19 05:16:31;;;;;;;5.80;3.97;;;14.70;87.00;;;;;;2004953;28;20185;-71
2022/01/19 05:17:30;;;;;;;5.13;3.90;;;14.60;86.60;;;;;;2004995;28;20547;-71
2022/01/19 05:18:28;;;;;;;6.80;4.13;;;14.70;86.70;;;;;;2004975;28;20617;-71
2022/01/19 05:19:27;;;;;;;8.83;5.00;;;14.70;86.80;;;;;;2005082;28;20222;-70
2022/01/19 05:20:25;;;;;;;5.73;4.57;;;14.70;86.70;;;;;;2004924;28;20169;-71
2022/01/19 05:21:24;;;;;;;8.83;4.43;;;14.70;86.40;;;;;;2004957;28;20169;-71
2022/01/19 05:22:22;;;;;;;5.73;3.90;;;14.70;86.40;;;;;;2012147;28;20560;-71
2022/01/19 05:23:21;;;;;;;9.43;4.60;;;14.70;86.60;;;;;;2012361;28;20172;-71
2022/01/19 05:24:19;;;;;;;8.97;4.60;;;14.70;86.50;;;;;;2004141;28;20665;-71
2022/01/19 05:25:18;;;;;;;4.50;3.50;;;14.70;86.40;;;;;;2004365;28;20543;-71
2022/01/19 05:26:17;;;;;;;6.30;4.20;;;14.70;86.50;;;;;;2003802;28;20178;-71
2022/01/19 05:27:17;;;;;;;5.43;3.53;;;14.70;86.60;;;;;;2003565;28;20200;-71
2022/01/19 05:28:16;;;;;;;6.80;4.00;;;14.70;86.50;;;;;;2004759;28;20412;-71
2022/01/19 05:29:14;;;;;;;4.80;3.63;;;14.70;86.40;;;;;;2004995;28;20256;-71
2022/01/19 05:30:14;;;;;;;7.40;4.80;;;14.70;86.40;;;;;;2004837;28;20212;-71
2022/01/19 05:31:13;;;;;;;5.50;3.80;;;14.70;86.40;;;;;;2005026;28;20327;-71
2022/01/19 05:32:11;;;;;;;5.10;3.67;;;14.70;86.60;;;;;;2004815;28;20621;-71
2022/01/19 05:33:10;;;;;;;6.40;3.70;;;14.80;87.10;;;;;;2004127;28;20223;-71
2022/01/19 05:34:08;;;;;;;5.20;3.43;;;14.80;87.40;;;;;;2004237;28;20173;-71
2022/01/19 05:35:07;;;;;;;7.10;3.90;;;14.70;87.30;;;;;;2005032;28;20329;-71
2022/01/19 05:36:06;;;;;;;8.90;4.50;;;14.70;87.20;;;;;;2004892;28;20273;-70
2022/01/19 05:37:05;;;;;;;12.07;3.90;;;14.70;87.40;;;;;;2004710;28;20407;-71
2022/01/19 05:38:03;;;;;;;5.60;4.17;;;14.70;87.30;;;;;;2004825;28;20165;-70
2022/01/19 05:39:05;;;;;;;4.33;3.70;;;14.70;87.40;;;;;;2004782;28;20694;-71
2022/01/19 05:40:06;;;;;;;4.35;3.85;;;14.70;87.60;;;;;;2004764;28;20177;-71
2022/01/19 05:41:05;;;;;;;6.30;3.95;;;14.70;87.50;;;;;;2004652;28;20181;-71
2022/01/19 05:42:04;;;;;;;9.67;3.67;;;14.60;87.10;;;;;;2004759;28;20663;-71
2022/01/19 05:43:03;;;;;;;8.83;4.07;;;14.60;87.30;;;;;;2004780;28;20533;-71
2022/01/19 05:44:01;;;;;;;5.13;3.53;;;14.70;87.30;;;;;;2004950;28;20469;-71
2022/01/19 05:45:00;;;;;;;5.90;3.80;;;14.70;87.20;;;;;;2004930;28;20181;-71
2022/01/19 05:45:59;;;;;;;6.40;3.63;;;14.60;87.40;;;;;;2004768;28;20169;-71
2022/01/19 05:46:58;;;;;;;7.47;4.03;;;14.60;87.50;;;;;;2004663;28;20193;-71
2022/01/19 05:47:56;;;;;;;8.40;3.67;;;14.60;87.80;;;;;;2004893;28;20404;-71
2022/01/19 05:48:55;;;;;;;7.33;4.60;;;14.60;87.70;;;;;;2004736;28;20596;-71
2022/01/19 05:49:53;;;;;;;14.00;4.20;;;14.60;87.80;;;;;;2004763;28;20169;-71
2022/01/19 05:50:52;;;;;;;16.43;4.33;;;14.60;87.70;;;;;;2004877;28;20636;-71
2022/01/19 05:51:51;;;;;;;10.60;4.40;;;14.50;87.70;;;;;;2004775;28;20248;-72
2022/01/19 05:52:50;;;;;;;8.97;4.30;;;14.60;87.50;;;;;;2011937;28;20505;-71
2022/01/19 05:53:49;;;;;;;10.10;4.77;;;14.60;87.60;;;;;;2012139;28;20179;-71
2022/01/19 05:54:48;;;;;;;8.90;4.50;;;14.70;88.20;;;;;;2004992;28;20529;-74
2022/01/19 05:55:46;;;;;;;11.73;3.67;;;14.70;88.20;;;;;;2004556;28;20307;-71
2022/01/19 05:56:45;;;;;;;11.10;4.10;;;14.70;87.80;;;;;;2004693;28;20427;-73
2022/01/19 05:57:43;;;;;;;6.57;4.23;;;14.60;87.80;;;;;;2004663;28;20209;-70
2022/01/19 05:58:42;;;;;;;13.03;5.60;;;14.60;87.60;;;;;;2004178;28;20201;-71
2022/01/19 05:59:40;;;;;;;13.43;4.70;;;14.60;87.40;;;;;;2004118;28;20676;-71
2022/01/19 06:00:39;;;;;;;11.93;5.80;;;14.60;87.50;;;;;;2004259;28;20168;-71
2022/01/19 06:01:37;;;;;;;11.17;5.03;;;14.60;87.50;;;;;;2003963;28;20204;-71
2022/01/19 06:02:36;;;;;;;12.13;5.10;;;14.60;87.40;;;;;;2004705;28;20663;-71
2022/01/19 06:03:35;;;;;;;15.30;5.13;;;14.60;87.30;;;;;;2004718;28;20235;-71
2022/01/19 06:04:34;;;;;;;12.70;4.53;;;14.60;87.60;;;;;;2004608;28;20271;-70
2022/01/19 06:05:33;;;;;;;9.13;5.07;;;14.60;87.50;;;;;;2004596;28;20169;-70
2022/01/19 06:06:32;;;;;;;14.75;5.07;;;14.60;87.70;;;;;;2003937;28;20564;-70
2022/01/19 06:07:39;;;;;;;13.80;4.90;;;14.70;87.80;;;;;;2003980;28;20185;-71
2022/01/19 06:08:43;;;;;;;13.02;4.75;;;14.60;87.50;;;;;;2011295;28;20390;-70
2022/01/19 06:10:43;;;;;;;13.27;4.40;;;14.70;87.40;;;;;;2004617;28;20582;-70
2022/01/19 06:11:41;;;;;;;13.15;5.22;;;14.60;87.40;;;;;;2004605;28;20541;-70
2022/01/19 06:12:40;;;;;;;10.57;4.93;;;14.60;87.40;;;;;;2004550;28;20181;-70
2022/01/19 06:13:39;;;;;;;6.73;4.33;;;14.70;87.50;;;;;;2004557;28;20183;-70
2022/01/19 06:14:39;;;;;;;10.67;4.73;;;14.70;87.50;;;;;;2004428;28;20197;-70
2022/01/19 06:15:38;;;;;;;7.32;4.35;;;14.60;87.40;;;;;;2004659;28;20264;-70
2022/01/19 06:16:36;;;;;;;10.40;4.93;;;14.60;87.40;;;;;;2004527;28;20196;-70
2022/01/19 06:17:36;;;;;;;8.87;4.97;;;14.60;87.40;;;;;;2004611;28;20246;-71
2022/01/19 06:18:34;;;;;;;11.85;5.03;;;14.70;87.50;;;;;;2004489;28;20526;-70
2022/01/19 06:19:33;;;;;;;11.20;5.23;;;14.70;87.40;;;;;;2004602;28;20185;-71
2022/01/19 06:20:32;;;;;;;10.07;4.67;;;14.70;87.30;;;;;;2004570;28;20255;-71
2022/01/19 06:21:30;;;;;;;12.20;5.33;;;14.60;87.20;;;;;;2004470;28;20523;-70
2022/01/19 06:22:29;;;;;;;9.80;4.70;;;14.70;87.40;;;;;;2004486;28;20181;-70
2022/01/19 06:23:27;;;;;;;12.07;4.90;;;14.60;87.20;;;;;;2004648;28;20169;-71
2022/01/19 06:24:27;;;;;;;10.77;4.57;;;14.60;87.80;;;;;;2004678;28;20231;-70
2022/01/19 06:25:25;;;;;;;6.85;4.47;;;14.60;87.30;;;;;;2004543;28;20170;-70
2022/01/19 06:26:24;;;;;;;8.93;4.50;;;14.70;87.50;;;;;;2004488;28;20205;-71
2022/01/19 06:27:22;;;;;;;11.17;4.37;;;14.60;87.40;;;;;;2004430;28;20183;-71
2022/01/19 06:28:21;;;;;;;11.57;5.20;;;14.70;87.40;;;;;;2004445;28;20196;-70
2022/01/19 06:29:21;;;;;;;8.57;4.70;;;14.60;87.20;;;;;;2004625;28;20173;-71
2022/01/19 06:30:20;;;;;;;16.40;5.05;;;14.60;87.30;;;;;;2004539;28;20223;-70